createdAt,value
2022-12-03T00:02:15.249Z,3.50
2022-12-03T00:04:42.165Z,3.50
2022-12-03T00:07:09.207Z,3.60
2022-12-03T00:09:35.905Z,3.70
2022-12-03T00:12:02.644Z,3.70
2022-12-03T00:14:29.437Z,3.80
2022-12-03T00:16:56.525Z,3.80
2022-12-03T00:19:23.492Z,3.80
2022-12-03T00:21:50.261Z,3.90
2022-12-03T00:24:17.031Z,3.90
2022-12-03T00:26:43.780Z,3.90
2022-12-03T00:29:11.218Z,3.80
2022-12-03T00:31:37.970Z,3.90
2022-12-03T00:34:04.799Z,3.90
2022-12-03T00:36:31.518Z,3.90
2022-12-03T00:38:58.239Z,3.90
2022-12-03T00:41:25.009Z,3.90
2022-12-03T00:43:51.789Z,3.90
2022-12-03T00:46:21.577Z,3.90
2022-12-03T00:48:48.576Z,3.90
2022-12-03T00:51:15.322Z,3.90
2022-12-03T00:53:42.139Z,3.90
2022-12-03T00:56:09.176Z,3.90
2022-12-03T00:58:36.017Z,3.90
2022-12-03T01:01:02.741Z,3.90
2022-12-03T01:03:29.722Z,3.90
2022-12-03T01:05:56.448Z,3.90
2022-12-03T01:08:23.178Z,3.90
2022-12-03T01:10:50.541Z,3.80
2022-12-03T01:13:17.476Z,3.80
2022-12-03T01:15:44.298Z,3.80
2022-12-03T01:18:11.375Z,3.90
2022-12-03T01:20:38.694Z,3.80
2022-12-03T01:23:05.692Z,3.80
2022-12-03T01:25:32.516Z,3.90
2022-12-03T01:27:59.234Z,3.90
2022-12-03T01:30:25.919Z,3.90
2022-12-03T01:32:52.762Z,3.90
2022-12-03T01:35:19.712Z,3.90
2022-12-03T01:37:46.412Z,3.90
2022-12-03T01:40:22.782Z,3.80
2022-12-03T01:42:49.450Z,3.90
2022-12-03T01:45:23.710Z,3.90
2022-12-03T01:47:51.069Z,3.90
2022-12-03T01:50:31.422Z,3.90
2022-12-03T01:53:01.022Z,4.00
2022-12-03T01:55:27.956Z,3.90
2022-12-03T01:57:58.144Z,3.90
2022-12-03T02:00:29.554Z,4.00
2022-12-03T02:03:10.891Z,4.00
2022-12-03T02:05:38.572Z,3.90
2022-12-03T02:08:27.239Z,4.00
2022-12-03T02:10:54.085Z,3.90
2022-12-03T02:13:20.812Z,4.00
2022-12-03T02:15:47.597Z,4.00
2022-12-03T02:18:14.392Z,4.10
2022-12-03T02:21:05.787Z,4.10
2022-12-03T02:23:53.871Z,4.00
2022-12-03T02:26:20.941Z,4.00
2022-12-03T02:28:47.735Z,4.00
2022-12-03T02:31:14.551Z,3.90
2022-12-03T02:33:41.493Z,3.90
2022-12-03T02:36:08.880Z,3.90
2022-12-03T02:38:36.238Z,3.90
2022-12-03T02:41:08.078Z,3.90
2022-12-03T02:43:35.274Z,3.90
2022-12-03T02:46:03.642Z,4.00
2022-12-03T02:48:34.896Z,4.00
2022-12-03T02:51:05.375Z,4.00
2022-12-03T02:53:42.274Z,3.90
2022-12-03T02:56:11.305Z,3.90
2022-12-03T02:58:38.732Z,4.00
2022-12-03T03:01:06.184Z,3.90
2022-12-03T03:03:33.823Z,3.90
2022-12-03T03:06:02.722Z,4.00
2022-12-03T03:08:30.792Z,4.00
2022-12-03T03:10:59.686Z,3.90
2022-12-03T03:13:26.541Z,3.90
2022-12-03T03:15:53.370Z,3.90
2022-12-03T03:18:20.237Z,3.90
2022-12-03T03:20:47.031Z,3.90
2022-12-03T03:23:21.410Z,3.90
2022-12-03T03:25:52.029Z,3.90
2022-12-03T03:28:18.984Z,3.90
2022-12-03T03:30:46.541Z,4.00
2022-12-03T03:33:15.315Z,4.00
2022-12-03T03:35:43.181Z,4.00
2022-12-03T03:38:10.573Z,4.00
2022-12-03T03:40:38.449Z,4.00
2022-12-03T03:43:06.395Z,4.10
2022-12-03T03:45:33.646Z,4.00
2022-12-03T03:48:01.164Z,3.90
2022-12-03T03:50:31.333Z,3.80
2022-12-03T03:52:59.942Z,3.80
2022-12-03T03:55:27.397Z,3.80
2022-12-03T03:57:54.671Z,3.80
2022-12-03T04:00:21.553Z,3.80
2022-12-03T04:02:48.329Z,3.80
2022-12-03T04:05:21.586Z,3.80
2022-12-03T04:07:48.498Z,3.90
2022-12-03T04:10:34.029Z,3.90
2022-12-03T04:13:01.428Z,3.90
2022-12-03T04:15:28.280Z,3.90
2022-12-03T04:18:14.165Z,3.80
2022-12-03T04:20:40.995Z,3.80
2022-12-03T04:23:08.210Z,3.80
2022-12-03T04:25:53.641Z,3.80
2022-12-03T04:28:50.550Z,3.90
2022-12-03T04:31:35.751Z,3.80
2022-12-03T04:34:21.099Z,3.80
2022-12-03T04:36:47.872Z,3.80
2022-12-03T04:39:14.666Z,3.80
2022-12-03T04:41:41.472Z,3.70
2022-12-03T04:44:26.698Z,3.70
2022-12-03T04:46:53.411Z,3.80
2022-12-03T04:49:20.164Z,3.80
2022-12-03T04:51:46.836Z,3.80
2022-12-03T04:54:13.569Z,3.80
2022-12-03T04:56:40.335Z,3.80
2022-12-03T04:59:10.139Z,3.80
2022-12-03T05:01:41.296Z,3.90
2022-12-03T05:04:08.021Z,3.90
2022-12-03T05:06:34.821Z,3.90
2022-12-03T05:09:01.568Z,3.90
2022-12-03T05:11:28.455Z,3.90
2022-12-03T05:13:55.255Z,3.90
2022-12-03T05:16:22.587Z,3.90
2022-12-03T05:18:49.316Z,3.90
2022-12-03T05:21:16.054Z,3.90
2022-12-03T05:23:42.858Z,3.90
2022-12-03T05:26:09.682Z,3.90
2022-12-03T05:28:36.506Z,3.90
2022-12-03T05:31:03.430Z,3.90
2022-12-03T05:33:30.327Z,3.80
2022-12-03T05:35:57.259Z,3.90
2022-12-03T05:38:24.011Z,3.90
2022-12-03T05:40:50.667Z,3.80
2022-12-03T05:43:17.333Z,3.80
2022-12-03T05:45:44.828Z,3.80
2022-12-03T05:48:13.744Z,3.80
2022-12-03T05:50:44.375Z,3.80
2022-12-03T05:53:11.995Z,3.80
2022-12-03T05:55:39.063Z,3.90
2022-12-03T05:58:06.049Z,3.90
2022-12-03T06:00:42.531Z,3.80
2022-12-03T06:03:10.757Z,3.90
2022-12-03T06:05:37.708Z,3.90
2022-12-03T06:08:04.681Z,3.90
2022-12-03T06:10:31.481Z,4.00
2022-12-03T06:12:58.342Z,3.90
2022-12-03T06:15:25.164Z,4.00
2022-12-03T06:17:54.366Z,4.00
2022-12-03T06:20:21.542Z,4.00
2022-12-03T06:22:48.819Z,4.00
2022-12-03T06:25:16.720Z,4.00
2022-12-03T06:27:43.396Z,4.00
2022-12-03T06:30:13.034Z,4.00
2022-12-03T06:32:39.791Z,4.00
2022-12-03T06:35:06.692Z,4.10
2022-12-03T06:37:33.364Z,4.00
2022-12-03T06:40:00.114Z,4.00
2022-12-03T06:42:26.779Z,4.00
2022-12-03T06:44:53.616Z,4.00
2022-12-03T06:47:20.463Z,4.00
2022-12-03T06:49:47.169Z,4.00
2022-12-03T06:52:13.856Z,4.00
2022-12-03T06:54:40.639Z,4.00
2022-12-03T06:57:07.443Z,4.00
2022-12-03T06:59:35.817Z,3.90
2022-12-03T07:02:02.647Z,3.90
2022-12-03T07:04:29.463Z,3.80
2022-12-03T07:06:56.236Z,3.80
2022-12-03T07:09:22.995Z,3.80
2022-12-03T07:11:49.771Z,3.80
2022-12-03T07:14:16.550Z,3.80
2022-12-03T07:16:43.775Z,3.80
2022-12-03T07:19:11.431Z,3.80
2022-12-03T07:21:38.535Z,3.80
2022-12-03T07:24:06.041Z,3.80
2022-12-03T07:26:33.343Z,3.80
2022-12-03T07:29:00.148Z,3.80
2022-12-03T07:31:27.225Z,3.80
2022-12-03T07:33:54.012Z,3.90
2022-12-03T07:36:20.810Z,3.90
2022-12-03T07:38:47.574Z,3.90
2022-12-03T07:41:14.361Z,3.90
2022-12-03T07:43:41.135Z,3.90
2022-12-03T07:46:08.624Z,3.80
2022-12-03T07:48:35.464Z,3.70
2022-12-03T07:51:02.259Z,3.70
2022-12-03T07:53:29.113Z,3.70
2022-12-03T07:55:55.850Z,3.80
2022-12-03T07:58:22.664Z,3.80
2022-12-03T08:00:49.557Z,3.80
2022-12-03T08:03:16.336Z,3.70
2022-12-03T08:05:42.989Z,3.70
2022-12-03T08:08:09.776Z,3.80
2022-12-03T08:10:36.554Z,3.80
2022-12-03T08:13:07.331Z,3.80
2022-12-03T08:15:39.311Z,3.80
2022-12-03T08:18:18.346Z,3.80
2022-12-03T08:20:47.769Z,3.80
2022-12-03T08:23:20.164Z,3.90
2022-12-03T08:25:47.656Z,3.80
2022-12-03T08:28:21.839Z,3.70
2022-12-03T08:31:20.131Z,3.80
2022-12-03T08:33:49.320Z,3.80
2022-12-03T08:36:19.040Z,3.80
2022-12-03T08:38:53.032Z,3.90
2022-12-03T08:41:40.529Z,3.80
2022-12-03T08:44:29.695Z,3.70
2022-12-03T08:47:16.392Z,3.70
2022-12-03T08:50:06.546Z,3.70
2022-12-03T08:52:34.682Z,3.70
2022-12-03T08:55:31.131Z,3.80
2022-12-03T08:57:58.661Z,3.90
2022-12-03T09:00:25.596Z,3.90
2022-12-03T09:02:54.523Z,3.90
2022-12-03T09:05:30.236Z,3.90
2022-12-03T09:07:56.985Z,3.90
2022-12-03T09:10:23.765Z,3.90
2022-12-03T09:12:50.544Z,3.90
2022-12-03T09:15:17.312Z,4.00
2022-12-03T09:17:44.064Z,4.10
2022-12-03T09:20:11.192Z,4.10
2022-12-03T09:22:38.114Z,4.10
2022-12-03T09:25:05.416Z,4.10
2022-12-03T09:27:32.247Z,4.00
2022-12-03T09:29:59.097Z,4.10
2022-12-03T09:32:26.038Z,4.10
2022-12-03T09:34:53.190Z,4.10
2022-12-03T09:37:22.053Z,4.10
2022-12-03T09:39:49.135Z,4.10
2022-12-03T09:42:16.127Z,4.20
2022-12-03T09:44:43.709Z,4.10
2022-12-03T09:47:10.743Z,4.10
2022-12-03T09:49:38.506Z,4.00
2022-12-03T09:52:07.082Z,4.10
2022-12-03T09:54:34.443Z,4.20
2022-12-03T09:57:04.122Z,4.10
2022-12-03T09:59:33.342Z,4.10
2022-12-03T10:02:01.478Z,4.10
2022-12-03T10:04:28.925Z,4.20
2022-12-03T10:06:58.540Z,4.20
2022-12-03T10:09:28.148Z,4.30
2022-12-03T10:11:59.860Z,4.30
2022-12-03T10:14:28.297Z,4.30
2022-12-03T10:16:55.736Z,4.30
2022-12-03T10:19:31.660Z,4.30
2022-12-03T10:21:58.775Z,4.40
2022-12-03T10:24:29.588Z,4.40
2022-12-03T10:27:05.754Z,4.40
2022-12-03T10:29:35.130Z,4.40
2022-12-03T10:32:06.081Z,4.40
2022-12-03T10:34:34.100Z,4.40
2022-12-03T10:37:14.816Z,4.50
2022-12-03T10:40:00.235Z,4.50
2022-12-03T10:42:33.670Z,4.50
2022-12-03T10:45:20.951Z,4.60
2022-12-03T10:48:21.145Z,4.70
2022-12-03T10:50:53.401Z,4.70
2022-12-03T10:53:22.469Z,4.70
2022-12-03T10:55:51.773Z,4.70
2022-12-03T10:58:23.307Z,4.70
2022-12-03T11:00:53.769Z,4.70
2022-12-03T11:03:29.694Z,4.70
2022-12-03T11:05:59.882Z,4.70
2022-12-03T11:08:30.648Z,4.70
2022-12-03T11:11:06.901Z,4.80
2022-12-03T11:13:33.663Z,4.70
2022-12-03T11:16:02.433Z,4.70
2022-12-03T11:18:59.163Z,4.80
2022-12-03T11:21:26.188Z,4.90
2022-12-03T11:23:52.948Z,4.90
2022-12-03T11:26:28.823Z,4.90
2022-12-03T11:28:59.940Z,4.90
2022-12-03T11:31:42.231Z,5.00
2022-12-03T11:34:21.322Z,5.00
2022-12-03T11:37:09.614Z,5.00
2022-12-03T11:39:45.571Z,5.10
2022-12-03T11:42:27.049Z,5.10
2022-12-03T11:45:02.960Z,5.00
2022-12-03T11:47:37.546Z,5.00
2022-12-03T11:50:39.388Z,4.90
2022-12-03T11:53:23.709Z,4.80
2022-12-03T11:56:08.529Z,4.80
2022-12-03T11:58:38.412Z,4.80
2022-12-03T12:01:07.547Z,4.80
2022-12-03T12:03:37.264Z,4.80
2022-12-03T12:06:15.521Z,4.80
2022-12-03T12:08:57.054Z,4.70
2022-12-03T12:11:32.780Z,4.70
2022-12-03T12:14:07.768Z,4.80
2022-12-03T12:16:52.195Z,4.80
2022-12-03T12:19:42.139Z,4.70
2022-12-03T12:22:14.965Z,4.70
2022-12-03T12:24:46.850Z,4.70
2022-12-03T12:27:17.904Z,4.80
2022-12-03T12:29:50.517Z,4.80
2022-12-03T12:32:19.356Z,4.70
2022-12-03T12:34:48.970Z,4.70
2022-12-03T12:37:32.839Z,4.70
2022-12-03T12:40:02.701Z,4.80
2022-12-03T12:42:32.663Z,4.80
2022-12-03T12:45:14.397Z,4.80
2022-12-03T12:47:50.602Z,4.80
2022-12-03T12:50:18.736Z,4.80
2022-12-03T12:52:52.450Z,4.80
2022-12-03T12:55:19.945Z,4.80
2022-12-03T12:57:46.920Z,4.80
2022-12-03T13:00:23.807Z,4.80
2022-12-03T13:03:04.772Z,4.90
2022-12-03T13:05:51.196Z,4.90
2022-12-03T13:08:22.630Z,4.90
2022-12-03T13:10:50.243Z,4.90
2022-12-03T13:13:40.109Z,4.90
2022-12-03T13:16:19.285Z,5.00
2022-12-03T13:18:47.585Z,4.90
2022-12-03T13:21:39.587Z,4.90
2022-12-03T13:24:39.475Z,4.90
2022-12-03T13:27:18.169Z,4.80
2022-12-03T13:30:07.003Z,4.80
2022-12-03T13:32:36.090Z,4.90
2022-12-03T13:35:07.668Z,4.90
2022-12-03T13:37:34.620Z,4.90
2022-12-03T13:40:17.556Z,4.90
2022-12-03T13:42:46.491Z,5.00
2022-12-03T13:45:19.443Z,5.00
2022-12-03T13:47:49.156Z,5.00
2022-12-03T13:50:36.490Z,4.90
2022-12-03T13:53:27.378Z,4.80
2022-12-03T13:56:03.097Z,4.80
2022-12-03T13:58:29.912Z,4.80
2022-12-03T14:00:56.705Z,4.70
2022-12-03T14:03:23.549Z,4.70
2022-12-03T14:05:50.319Z,4.80
2022-12-03T14:08:17.140Z,4.80
2022-12-03T14:10:43.942Z,4.70
2022-12-03T14:13:11.415Z,4.70
2022-12-03T14:15:38.116Z,4.70
2022-12-03T14:18:04.964Z,4.60
2022-12-03T14:20:31.793Z,4.70
2022-12-03T14:22:59.665Z,4.80
2022-12-03T14:25:27.040Z,4.70
2022-12-03T14:27:53.927Z,4.70
2022-12-03T14:30:20.640Z,4.70
2022-12-03T14:32:47.512Z,4.70
2022-12-03T14:35:14.325Z,4.70
2022-12-03T14:37:41.907Z,4.70
2022-12-03T14:40:09.172Z,4.70
2022-12-03T14:42:36.736Z,4.70
2022-12-03T14:45:04.059Z,4.70
2022-12-03T14:47:30.853Z,4.80
2022-12-03T14:49:57.848Z,4.80
2022-12-03T14:52:25.207Z,4.80
2022-12-03T14:54:51.955Z,4.80
2022-12-03T14:57:18.961Z,4.80
2022-12-03T14:59:47.250Z,4.80
2022-12-03T15:02:14.700Z,4.80
2022-12-03T15:04:42.266Z,4.80
2022-12-03T15:07:10.153Z,4.80
2022-12-03T15:09:37.402Z,4.70
2022-12-03T15:12:05.165Z,4.70
2022-12-03T15:14:31.987Z,4.70
2022-12-03T15:16:59.339Z,4.70
2022-12-03T15:19:26.147Z,4.70
2022-12-03T15:21:53.027Z,4.70
2022-12-03T15:24:19.775Z,4.70
2022-12-03T15:26:46.713Z,4.60
2022-12-03T15:29:13.477Z,4.70
2022-12-03T15:31:40.466Z,4.70
2022-12-03T15:34:07.331Z,4.70
2022-12-03T15:36:34.167Z,4.70
2022-12-03T15:39:00.978Z,4.70
2022-12-03T15:41:30.648Z,4.80
2022-12-03T15:44:00.170Z,4.80
2022-12-03T15:46:27.904Z,4.80
2022-12-03T15:48:55.438Z,4.70
2022-12-03T15:51:22.344Z,4.80
2022-12-03T15:53:49.351Z,4.70
2022-12-03T15:56:16.634Z,4.70
2022-12-03T15:58:43.418Z,4.70
2022-12-03T16:01:10.574Z,4.70
2022-12-03T16:03:37.340Z,4.70
2022-12-03T16:06:04.237Z,4.70
2022-12-03T16:08:31.055Z,4.70
2022-12-03T16:10:57.978Z,4.70
2022-12-03T16:13:24.756Z,4.70
2022-12-03T16:15:51.622Z,4.70
2022-12-03T16:18:18.606Z,4.70
2022-12-03T16:20:45.289Z,4.70
2022-12-03T16:23:12.120Z,4.70
2022-12-03T16:25:38.890Z,4.70
2022-12-03T16:28:05.634Z,4.80
2022-12-03T16:30:32.354Z,4.80
2022-12-03T16:32:59.088Z,4.80
2022-12-03T16:35:25.865Z,4.80
2022-12-03T16:37:52.613Z,4.70
2022-12-03T16:40:19.495Z,4.80
2022-12-03T16:42:46.237Z,4.70
2022-12-03T16:45:33.282Z,4.70
2022-12-03T16:48:01.109Z,4.70
2022-12-03T16:50:30.331Z,4.70
2022-12-03T16:52:58.036Z,4.70
2022-12-03T16:55:25.020Z,4.90
2022-12-03T16:57:51.932Z,4.80
2022-12-03T17:00:21.688Z,4.70
2022-12-03T17:02:48.772Z,4.70
2022-12-03T17:05:15.631Z,4.70
2022-12-03T17:07:42.496Z,4.70
2022-12-03T17:10:09.962Z,4.60
2022-12-03T17:13:07.211Z,4.60
2022-12-03T17:15:23.697Z,4.70
2022-12-03T17:17:50.561Z,4.70
2022-12-03T17:20:17.887Z,4.70
2022-12-03T17:22:44.757Z,4.70
2022-12-03T17:25:12.130Z,4.60
2022-12-03T17:27:44.852Z,4.60
2022-12-03T17:30:12.838Z,4.60
2022-12-03T17:32:39.725Z,4.60
2022-12-03T17:35:06.955Z,4.70
2022-12-03T17:37:33.833Z,4.70
2022-12-03T17:40:00.876Z,4.70
2022-12-03T17:42:27.745Z,4.70
2022-12-03T17:44:54.457Z,4.70
2022-12-03T17:47:21.199Z,4.60
2022-12-03T17:49:47.852Z,4.60
2022-12-03T17:52:14.649Z,4.50
2022-12-03T17:55:08.357Z,4.50
2022-12-03T17:57:28.143Z,4.60
2022-12-03T17:59:55.191Z,4.60
2022-12-03T18:02:22.190Z,4.60
2022-12-03T18:04:49.116Z,4.60
2022-12-03T18:07:15.859Z,4.60
2022-12-03T18:09:42.899Z,4.50
2022-12-03T18:12:09.743Z,4.50
2022-12-03T18:14:36.676Z,4.50
2022-12-03T18:17:03.428Z,4.40
2022-12-03T18:19:30.191Z,4.40
2022-12-03T18:21:57.151Z,4.30
2022-12-03T18:24:24.508Z,4.40
2022-12-03T18:26:51.228Z,4.30
2022-12-03T18:29:17.978Z,4.30
2022-12-03T18:31:45.281Z,4.30
2022-12-03T18:34:12.263Z,4.30
2022-12-03T18:36:39.217Z,4.40
2022-12-03T18:39:09.353Z,4.40
2022-12-03T18:41:36.789Z,4.40
2022-12-03T18:44:06.773Z,4.30
2022-12-03T18:46:53.147Z,4.30
2022-12-03T18:49:23.893Z,4.40
2022-12-03T18:51:57.321Z,4.50
2022-12-03T18:54:25.879Z,4.50
2022-12-03T18:56:52.652Z,4.50
2022-12-03T18:59:19.372Z,4.50
2022-12-03T19:01:46.203Z,4.50
2022-12-03T19:04:12.994Z,4.50
2022-12-03T19:06:40.683Z,4.40
2022-12-03T19:09:07.449Z,4.40
2022-12-03T19:11:34.319Z,4.40
2022-12-03T19:14:03.005Z,4.40
2022-12-03T19:16:30.132Z,4.40
2022-12-03T19:18:57.255Z,4.40
2022-12-03T19:21:24.758Z,4.40
2022-12-03T19:24:22.639Z,4.40
2022-12-03T19:26:40.288Z,4.40
2022-12-03T19:29:07.252Z,4.40
2022-12-03T19:31:34.318Z,4.30
2022-12-03T19:34:01.241Z,4.30
2022-12-03T19:36:30.107Z,4.20
2022-12-03T19:38:58.999Z,4.30
2022-12-03T19:41:27.959Z,4.20
2022-12-03T19:43:55.994Z,4.20
2022-12-03T19:46:25.757Z,4.20
2022-12-03T19:48:54.298Z,4.10
2022-12-03T19:51:34.171Z,4.10
2022-12-03T19:54:04.663Z,4.20
2022-12-03T19:56:31.516Z,4.00
2022-12-03T19:58:59.186Z,4.10
2022-12-03T20:01:30.809Z,4.20
2022-12-03T20:03:59.755Z,4.20
2022-12-03T20:06:29.767Z,4.20
2022-12-03T20:09:00.936Z,4.20
2022-12-03T20:11:30.205Z,4.20
2022-12-03T20:13:59.580Z,4.20
2022-12-03T20:16:27.261Z,4.20
2022-12-03T20:18:59.610Z,4.10
2022-12-03T20:21:28.883Z,4.10
2022-12-03T20:23:55.774Z,4.10
2022-12-03T20:26:22.865Z,4.10
2022-12-03T20:28:50.244Z,4.10
2022-12-03T20:31:19.908Z,4.10
2022-12-03T20:33:49.323Z,4.20
2022-12-03T20:36:18.410Z,4.10
2022-12-03T20:38:45.561Z,4.10
2022-12-03T20:41:15.881Z,4.10
2022-12-03T20:43:43.061Z,4.10
2022-12-03T20:46:10.993Z,4.10
2022-12-03T20:48:38.460Z,4.10
2022-12-03T20:51:07.626Z,4.10
2022-12-03T20:53:34.814Z,4.20
2022-12-03T20:56:02.720Z,4.10
2022-12-03T20:58:31.617Z,4.10
2022-12-03T21:01:16.015Z,4.10
2022-12-03T21:03:43.388Z,4.00
2022-12-03T21:06:10.894Z,4.10
2022-12-03T21:08:42.482Z,4.10
2022-12-03T21:11:11.245Z,4.20
2022-12-03T21:13:41.327Z,4.10
2022-12-03T21:16:10.002Z,4.10
2022-12-03T21:18:36.936Z,4.10
2022-12-03T21:21:04.151Z,4.10
2022-12-03T21:23:32.584Z,4.10
2022-12-03T21:26:03.410Z,4.00
2022-12-03T21:28:30.872Z,4.00
2022-12-03T21:31:02.599Z,4.00
2022-12-03T21:33:30.654Z,4.10
2022-12-03T21:35:57.707Z,4.00
2022-12-03T21:38:25.554Z,4.00
2022-12-03T21:40:52.835Z,4.00
2022-12-03T21:43:19.685Z,4.00
2022-12-03T21:45:46.645Z,4.00
2022-12-03T21:48:14.782Z,4.00
2022-12-03T21:50:41.793Z,3.90
2022-12-03T21:53:09.391Z,3.90
2022-12-03T21:55:39.520Z,3.90
2022-12-03T21:58:09.436Z,3.90
2022-12-03T22:00:36.441Z,4.00
2022-12-03T22:03:03.402Z,3.90
2022-12-03T22:05:30.245Z,3.90
2022-12-03T22:07:57.037Z,4.00
2022-12-03T22:10:23.916Z,4.00
2022-12-03T22:12:50.641Z,4.00
2022-12-03T22:15:19.357Z,4.10
2022-12-03T22:17:47.153Z,4.10
2022-12-03T22:20:14.603Z,4.10
2022-12-03T22:22:41.497Z,4.10
2022-12-03T22:25:08.609Z,4.00
2022-12-03T22:27:35.486Z,4.00
2022-12-03T22:30:02.631Z,4.00
2022-12-03T22:32:29.403Z,4.00
2022-12-03T22:34:56.274Z,4.00
2022-12-03T22:37:23.000Z,4.00
2022-12-03T22:39:49.827Z,4.00
2022-12-03T22:42:16.644Z,3.90
2022-12-03T22:44:43.406Z,3.90
2022-12-03T22:47:10.232Z,3.90
2022-12-03T22:49:37.056Z,3.80
2022-12-03T22:52:03.944Z,3.90
2022-12-03T22:54:30.721Z,3.90
2022-12-03T22:56:57.370Z,4.00
2022-12-03T22:59:24.275Z,4.00
2022-12-03T23:01:51.014Z,4.00
2022-12-03T23:04:17.951Z,4.00
2022-12-03T23:06:44.669Z,4.00
2022-12-03T23:09:11.374Z,4.00
2022-12-03T23:11:38.307Z,4.00
2022-12-03T23:14:05.064Z,4.00
2022-12-03T23:16:33.202Z,4.10
2022-12-03T23:19:01.302Z,4.00
2022-12-03T23:21:31.176Z,4.00
2022-12-03T23:24:02.841Z,4.00
2022-12-03T23:26:29.799Z,4.00
2022-12-03T23:28:56.999Z,3.90
2022-12-03T23:31:25.145Z,3.90
2022-12-03T23:33:52.729Z,3.90
2022-12-03T23:36:19.962Z,3.90
2022-12-03T23:38:47.064Z,3.80
2022-12-03T23:41:16.674Z,3.80
2022-12-03T23:43:43.994Z,3.80
2022-12-03T23:46:23.376Z,3.80
2022-12-03T23:48:51.135Z,3.80
2022-12-03T23:51:21.655Z,3.80
2022-12-03T23:53:48.662Z,3.80
2022-12-03T23:56:18.893Z,3.80
2022-12-03T23:58:46.833Z,3.70
